YLK weather

Yalcok Airport
Margaritas, Chiapas, Mexico

Public forecast

Using degrees Celsius for public forecast. Weather courtesy of forecast.io.

Closest aviation weather report (METAR) to Yalcok Airport

Closest report is Angel Albino Corzo International Airport, 60.7 nm (112.4 km) WNW. Retrieved 2019/12/07 18:44 UTC (0 seconds ago):

MMTG 071844Z 05007KT 8SM SCT030TCU BKN300 29/14 A3010 RMK 8/206 CB DSTN N NE HZY

Closest aviation forecast (TAF) to Yalcok Airport

Closest forecast is Angel Albino Corzo International Airport, 60.7 nm (112.4 km) WNW. Retrieved 2019/12/07 18:41 UTC (0 seconds ago):

TAF MMTG 071635Z 0718/0818 32006KT 6SM HZ SCT020 SCT300 BECMG 0720/0721 32012KT FM080200 00000KT P6SM SCT300 FM081000 00000KT 3SM BR HZ BKN015 TEMPO 0811/0815 1/2SM FG VV002 FM081600 32005KT 5SM HZ SCT015